sensor_id;sensor_type;location;lat;lon;timestamp;temperature;humidity
9699;DHT22;10089;47.876;8.346;2023-07-24T00:02:03;18.00;1.00
9699;DHT22;10089;47.876;8.346;2023-07-24T00:04:31;17.60;1.00
9699;DHT22;10089;47.876;8.346;2023-07-24T00:06:57;19.20;1.00
9699;DHT22;10089;47.876;8.346;2023-07-24T00:09:22;17.50;1.00
9699;DHT22;10089;47.876;8.346;2023-07-24T00:11:48;17.40;1.00
9699;DHT22;10089;47.876;8.346;2023-07-24T00:14:15;18.10;1.00
9699;DHT22;10089;47.876;8.346;2023-07-24T00:16:41;17.30;1.00
9699;DHT22;10089;47.876;8.346;2023-07-24T00:19:07;18.10;1.00
9699;DHT22;10089;47.876;8.346;2023-07-24T00:21:32;19.00;1.00
9699;DHT22;10089;47.876;8.346;2023-07-24T00:23:58;18.60;1.00
9699;DHT22;10089;47.876;8.346;2023-07-24T00:26:23;17.50;1.00
9699;DHT22;10089;47.876;8.346;2023-07-24T00:28:49;18.70;1.00
9699;DHT22;10089;47.876;8.346;2023-07-24T00:31:14;19.10;1.00
9699;DHT22;10089;47.876;8.346;2023-07-24T00:33:40;19.10;1.00
9699;DHT22;10089;47.876;8.346;2023-07-24T00:36:06;16.80;1.00
9699;DHT22;10089;47.876;8.346;2023-07-24T00:38:31;17.90;1.00
9699;DHT22;10089;47.876;8.346;2023-07-24T00:40:57;19.20;1.00
9699;DHT22;10089;47.876;8.346;2023-07-24T00:43:23;18.10;1.00
9699;DHT22;10089;47.876;8.346;2023-07-24T00:45:48;17.20;1.00
9699;DHT22;10089;47.876;8.346;2023-07-24T00:48:14;18.00;30.40
9699;DHT22;10089;47.876;8.346;2023-07-24T00:50:42;19.00;1.00
9699;DHT22;10089;47.876;8.346;2023-07-24T00:53:11;19.30;1.00
9699;DHT22;10089;47.876;8.346;2023-07-24T00:55:37;18.20;1.00
9699;DHT22;10089;47.876;8.346;2023-07-24T00:58:03;17.20;1.00
9699;DHT22;10089;47.876;8.346;2023-07-24T01:00:29;18.60;1.00
9699;DHT22;10089;47.876;8.346;2023-07-24T01:02:56;18.00;1.00
9699;DHT22;10089;47.876;8.346;2023-07-24T01:05:22;16.80;19.70
9699;DHT22;10089;47.876;8.346;2023-07-24T01:07:50;18.40;1.00
9699;DHT22;10089;47.876;8.346;2023-07-24T01:10:16;16.90;1.00
9699;DHT22;10089;47.876;8.346;2023-07-24T01:12:57;16.70;44.00
9699;DHT22;10089;47.876;8.346;2023-07-24T01:15:32;16.70;92.00
9699;DHT22;10089;47.876;8.346;2023-07-24T01:18:06;16.70;99.90
9699;DHT22;10089;47.876;8.346;2023-07-24T01:20:40;16.70;99.90
9699;DHT22;10089;47.876;8.346;2023-07-24T01:26:21;16.40;99.90
9699;DHT22;10089;47.876;8.346;2023-07-24T01:28:49;17.80;99.90
9699;DHT22;10089;47.876;8.346;2023-07-24T01:31:15;16.50;99.90
9699;DHT22;10089;47.876;8.346;2023-07-24T01:33:45;18.60;99.90
9699;DHT22;10089;47.876;8.346;2023-07-24T01:36:11;16.20;99.90
9699;DHT22;10089;47.876;8.346;2023-07-24T01:38:38;17.30;99.90
9699;DHT22;10089;47.876;8.346;2023-07-24T01:41:05;17.20;99.90
9699;DHT22;10089;47.876;8.346;2023-07-24T01:43:31;18.30;99.90
9699;DHT22;10089;47.876;8.346;2023-07-24T01:45:58;17.30;99.90
9699;DHT22;10089;47.876;8.346;2023-07-24T01:48:23;16.80;99.90
9699;DHT22;10089;47.876;8.346;2023-07-24T01:50:49;17.00;99.90
9699;DHT22;10089;47.876;8.346;2023-07-24T01:53:15;15.70;99.90
9699;DHT22;10089;47.876;8.346;2023-07-24T01:55:41;17.20;99.90
9699;DHT22;10089;47.876;8.346;2023-07-24T02:03:11;15.70;99.90
9699;DHT22;10089;47.876;8.346;2023-07-24T02:05:37;17.00;99.90
9699;DHT22;10089;47.876;8.346;2023-07-24T02:08:03;18.40;99.90
9699;DHT22;10089;47.876;8.346;2023-07-24T02:10:28;15.80;99.90
9699;DHT22;10089;47.876;8.346;2023-07-24T02:12:54;16.60;99.90
9699;DHT22;10089;47.876;8.346;2023-07-24T02:15:23;17.40;99.90
9699;DHT22;10089;47.876;8.346;2023-07-24T02:17:51;17.90;99.90
9699;DHT22;10089;47.876;8.346;2023-07-24T02:20:17;15.80;99.90
9699;DHT22;10089;47.876;8.346;2023-07-24T02:22:43;16.90;99.90
9699;DHT22;10089;47.876;8.346;2023-07-24T02:25:09;17.90;99.90
9699;DHT22;10089;47.876;8.346;2023-07-24T02:27:34;17.30;99.90
9699;DHT22;10089;47.876;8.346;2023-07-24T02:30:04;16.30;99.90
9699;DHT22;10089;47.876;8.346;2023-07-24T02:32:32;15.70;99.90
9699;DHT22;10089;47.876;8.346;2023-07-24T02:34:58;15.50;99.90
9699;DHT22;10089;47.876;8.346;2023-07-24T02:37:26;16.90;99.90
9699;DHT22;10089;47.876;8.346;2023-07-24T02:39:52;18.00;99.90
9699;DHT22;10089;47.876;8.346;2023-07-24T02:42:18;15.90;99.90
9699;DHT22;10089;47.876;8.346;2023-07-24T02:44:44;15.90;99.90
9699;DHT22;10089;47.876;8.346;2023-07-24T02:47:12;16.10;99.90
9699;DHT22;10089;47.876;8.346;2023-07-24T02:49:41;16.10;99.90
9699;DHT22;10089;47.876;8.346;2023-07-24T02:52:07;18.40;99.90
9699;DHT22;10089;47.876;8.346;2023-07-24T02:54:35;16.90;99.90
9699;DHT22;10089;47.876;8.346;2023-07-24T02:57:04;18.00;99.90
9699;DHT22;10089;47.876;8.346;2023-07-24T02:59:32;16.00;99.90
9699;DHT22;10089;47.876;8.346;2023-07-24T03:02:06;16.30;99.90
9699;DHT22;10089;47.876;8.346;2023-07-24T03:04:32;16.40;99.90
9699;DHT22;10089;47.876;8.346;2023-07-24T03:06:58;16.40;99.90
9699;DHT22;10089;47.876;8.346;2023-07-24T03:09:23;18.00;99.90
9699;DHT22;10089;47.876;8.346;2023-07-24T03:11:49;18.00;99.90
9699;DHT22;10089;47.876;8.346;2023-07-24T03:14:15;16.80;99.90
9699;DHT22;10089;47.876;8.346;2023-07-24T03:20:47;16.60;99.90
9699;DHT22;10089;47.876;8.346;2023-07-24T03:26:41;17.80;99.90
9699;DHT22;10089;47.876;8.346;2023-07-24T03:29:20;16.40;99.90
9699;DHT22;10089;47.876;8.346;2023-07-24T03:31:48;16.10;99.90
9699;DHT22;10089;47.876;8.346;2023-07-24T03:34:44;16.10;99.90
9699;DHT22;10089;47.876;8.346;2023-07-24T03:40:33;14.00;99.90
9699;DHT22;10089;47.876;8.346;2023-07-24T03:42:59;16.40;99.90
9699;DHT22;10089;47.876;8.346;2023-07-24T03:45:25;16.50;99.90
9699;DHT22;10089;47.876;8.346;2023-07-24T03:47:51;16.60;99.90
9699;DHT22;10089;47.876;8.346;2023-07-24T03:50:17;16.70;99.90
9699;DHT22;10089;47.876;8.346;2023-07-24T03:52:42;16.90;99.90
9699;DHT22;10089;47.876;8.346;2023-07-24T03:55:08;17.00;99.90
9699;DHT22;10089;47.876;8.346;2023-07-24T03:57:34;17.00;99.90
9699;DHT22;10089;47.876;8.346;2023-07-24T04:00:00;17.00;99.90
9699;DHT22;10089;47.876;8.346;2023-07-24T04:02:25;17.10;99.90
9699;DHT22;10089;47.876;8.346;2023-07-24T04:04:51;17.10;99.90
9699;DHT22;10089;47.876;8.346;2023-07-24T04:07:17;17.20;99.90
9699;DHT22;10089;47.876;8.346;2023-07-24T04:09:44;17.40;99.90
9699;DHT22;10089;47.876;8.346;2023-07-24T04:12:09;17.20;99.90
9699;DHT22;10089;47.876;8.346;2023-07-24T04:14:35;17.30;99.90
9699;DHT22;10089;47.876;8.346;2023-07-24T04:17:00;17.30;99.90
9699;DHT22;10089;47.876;8.346;2023-07-24T04:19:26;17.40;99.90
9699;DHT22;10089;47.876;8.346;2023-07-24T04:21:51;17.40;99.90
9699;DHT22;10089;47.876;8.346;2023-07-24T04:24:17;17.40;99.90
9699;DHT22;10089;47.876;8.346;2023-07-24T04:26:43;17.40;99.90
9699;DHT22;10089;47.876;8.346;2023-07-24T04:29:08;18.50;99.90
9699;DHT22;10089;47.876;8.346;2023-07-24T04:31:34;17.70;99.90
9699;DHT22;10089;47.876;8.346;2023-07-24T04:33:59;17.60;99.90
9699;DHT22;10089;47.876;8.346;2023-07-24T04:36:25;17.60;99.90
9699;DHT22;10089;47.876;8.346;2023-07-24T04:38:50;17.70;99.90
9699;DHT22;10089;47.876;8.346;2023-07-24T04:41:16;17.70;99.90
9699;DHT22;10089;47.876;8.346;2023-07-24T04:43:42;17.70;99.90
9699;DHT22;10089;47.876;8.346;2023-07-24T04:48:44;17.90;99.90
9699;DHT22;10089;47.876;8.346;2023-07-24T05:07:56;18.60;99.90
9699;DHT22;10089;47.876;8.346;2023-07-24T05:11:42;18.40;99.90
9699;DHT22;10089;47.876;8.346;2023-07-24T05:18:34;17.70;99.90
9699;DHT22;10089;47.876;8.346;2023-07-24T05:21:49;17.30;99.90
9699;DHT22;10089;47.876;8.346;2023-07-24T05:24:24;17.80;99.90
9699;DHT22;10089;47.876;8.346;2023-07-24T05:26:53;16.90;99.90
9699;DHT22;10089;47.876;8.346;2023-07-24T05:29:19;17.40;99.90
9699;DHT22;10089;47.876;8.346;2023-07-24T05:31:45;16.90;99.90
9699;DHT22;10089;47.876;8.346;2023-07-24T05:34:11;17.00;99.90
9699;DHT22;10089;47.876;8.346;2023-07-24T05:36:41;17.20;99.90
9699;DHT22;10089;47.876;8.346;2023-07-24T05:39:31;16.70;99.90
9699;DHT22;10089;47.876;8.346;2023-07-24T05:41:57;16.90;99.90
9699;DHT22;10089;47.876;8.346;2023-07-24T05:44:23;16.50;99.90
9699;DHT22;10089;47.876;8.346;2023-07-24T05:46:48;16.60;99.90
9699;DHT22;10089;47.876;8.346;2023-07-24T05:49:14;16.60;99.90
9699;DHT22;10089;47.876;8.346;2023-07-24T05:51:40;16.30;99.90
9699;DHT22;10089;47.876;8.346;2023-07-24T05:54:07;16.40;99.90
9699;DHT22;10089;47.876;8.346;2023-07-24T05:56:32;16.30;99.90
9699;DHT22;10089;47.876;8.346;2023-07-24T05:58:58;16.40;99.90
9699;DHT22;10089;47.876;8.346;2023-07-24T06:01:23;16.40;99.90
9699;DHT22;10089;47.876;8.346;2023-07-24T06:03:49;16.40;99.90
9699;DHT22;10089;47.876;8.346;2023-07-24T06:06:14;16.40;99.90
9699;DHT22;10089;47.876;8.346;2023-07-24T06:08:40;16.30;99.90
9699;DHT22;10089;47.876;8.346;2023-07-24T06:11:05;16.30;99.90
9699;DHT22;10089;47.876;8.346;2023-07-24T06:13:31;16.60;99.90
9699;DHT22;10089;47.876;8.346;2023-07-24T06:15:57;16.10;99.90
9699;DHT22;10089;47.876;8.346;2023-07-24T06:18:22;16.80;99.90
9699;DHT22;10089;47.876;8.346;2023-07-24T06:20:52;16.30;99.90
9699;DHT22;10089;47.876;8.346;2023-07-24T06:23:18;16.40;99.90
9699;DHT22;10089;47.876;8.346;2023-07-24T06:25:43;16.70;99.90
9699;DHT22;10089;47.876;8.346;2023-07-24T06:28:09;16.90;99.90
9699;DHT22;10089;47.876;8.346;2023-07-24T06:30:35;16.90;99.90
9699;DHT22;10089;47.876;8.346;2023-07-24T06:33:00;17.30;99.90
9699;DHT22;10089;47.876;8.346;2023-07-24T06:35:26;17.60;99.90
9699;DHT22;10089;47.876;8.346;2023-07-24T06:37:53;17.90;99.90
9699;DHT22;10089;47.876;8.346;2023-07-24T06:40:20;18.40;99.90
9699;DHT22;10089;47.876;8.346;2023-07-24T06:42:50;18.80;99.90
9699;DHT22;10089;47.876;8.346;2023-07-24T06:45:15;19.20;99.90
9699;DHT22;10089;47.876;8.346;2023-07-24T06:47:43;19.40;99.90
9699;DHT22;10089;47.876;8.346;2023-07-24T06:50:10;19.70;59.20
9699;DHT22;10089;47.876;8.346;2023-07-24T06:52:37;19.30;80.40
9699;DHT22;10089;47.876;8.346;2023-07-24T06:55:03;19.30;99.90
9699;DHT22;10089;47.876;8.346;2023-07-24T06:57:29;19.10;99.90
9699;DHT22;10089;47.876;8.346;2023-07-24T06:59:56;19.00;99.90
9699;DHT22;10089;47.876;8.346;2023-07-24T07:02:21;18.80;99.90
9699;DHT22;10089;47.876;8.346;2023-07-24T07:04:47;18.70;99.90
9699;DHT22;10089;47.876;8.346;2023-07-24T07:07:14;18.70;98.80
9699;DHT22;10089;47.876;8.346;2023-07-24T07:09:40;18.60;99.90
9699;DHT22;10089;47.876;8.346;2023-07-24T07:12:07;18.60;99.90
9699;DHT22;10089;47.876;8.346;2023-07-24T07:14:33;18.60;29.50
9699;DHT22;10089;47.876;8.346;2023-07-24T07:16:58;18.30;99.90
9699;DHT22;10089;47.876;8.346;2023-07-24T07:19:24;18.50;2.50
9699;DHT22;10089;47.876;8.346;2023-07-24T07:21:50;18.30;1.00
9699;DHT22;10089;47.876;8.346;2023-07-24T07:24:16;18.00;7.90
9699;DHT22;10089;47.876;8.346;2023-07-24T07:26:44;18.20;22.10
9699;DHT22;10089;47.876;8.346;2023-07-24T07:29:12;18.10;91.60
9699;DHT22;10089;47.876;8.346;2023-07-24T07:31:43;18.30;76.20
9699;DHT22;10089;47.876;8.346;2023-07-24T07:34:08;18.30;1.00
9699;DHT22;10089;47.876;8.346;2023-07-24T07:36:34;19.60;1.00
9699;DHT22;10089;47.876;8.346;2023-07-24T07:39:01;18.60;1.00
9699;DHT22;10089;47.876;8.346;2023-07-24T07:41:27;18.70;1.00
9699;DHT22;10089;47.876;8.346;2023-07-24T07:43:54;19.80;1.00
9699;DHT22;10089;47.876;8.346;2023-07-24T07:46:19;18.60;1.00
9699;DHT22;10089;47.876;8.346;2023-07-24T07:48:45;19.30;1.00
9699;DHT22;10089;47.876;8.346;2023-07-24T07:51:15;18.50;1.00
9699;DHT22;10089;47.876;8.346;2023-07-24T07:53:40;18.40;1.00
9699;DHT22;10089;47.876;8.346;2023-07-24T07:56:06;18.20;1.00
9699;DHT22;10089;47.876;8.346;2023-07-24T07:58:32;18.20;1.00
9699;DHT22;10089;47.876;8.346;2023-07-24T08:00:57;18.20;1.00
9699;DHT22;10089;47.876;8.346;2023-07-24T08:03:23;18.30;57.90
9699;DHT22;10089;47.876;8.346;2023-07-24T08:05:49;18.20;99.90
9699;DHT22;10089;47.876;8.346;2023-07-24T08:08:14;18.30;62.30
9699;DHT22;10089;47.876;8.346;2023-07-24T08:10:40;18.40;36.80
9699;DHT22;10089;47.876;8.346;2023-07-24T08:13:06;18.50;43.60
9699;DHT22;10089;47.876;8.346;2023-07-24T08:15:36;18.60;1.00
9699;DHT22;10089;47.876;8.346;2023-07-24T08:18:06;19.10;27.40
9699;DHT22;10089;47.876;8.346;2023-07-24T08:20:34;18.60;1.00
9699;DHT22;10089;47.876;8.346;2023-07-24T08:23:00;18.40;1.00
9699;DHT22;10089;47.876;8.346;2023-07-24T08:25:26;18.70;1.00
9699;DHT22;10089;47.876;8.346;2023-07-24T08:27:51;18.80;1.00
9699;DHT22;10089;47.876;8.346;2023-07-24T08:30:17;19.40;1.00
9699;DHT22;10089;47.876;8.346;2023-07-24T08:32:43;19.10;1.00
9699;DHT22;10089;47.876;8.346;2023-07-24T08:35:09;18.70;1.00
9699;DHT22;10089;47.876;8.346;2023-07-24T08:37:35;18.90;1.00
9699;DHT22;10089;47.876;8.346;2023-07-24T08:40:00;18.80;1.00
9699;DHT22;10089;47.876;8.346;2023-07-24T08:42:27;18.90;1.00
9699;DHT22;10089;47.876;8.346;2023-07-24T08:44:54;19.00;1.00
9699;DHT22;10089;47.876;8.346;2023-07-24T08:47:21;19.10;1.00
9699;DHT22;10089;47.876;8.346;2023-07-24T08:49:49;19.40;1.00
9699;DHT22;10089;47.876;8.346;2023-07-24T08:52:15;19.60;1.00
9699;DHT22;10089;47.876;8.346;2023-07-24T08:54:41;19.90;1.00
9699;DHT22;10089;47.876;8.346;2023-07-24T08:57:07;20.20;1.00
9699;DHT22;10089;47.876;8.346;2023-07-24T08:59:34;20.00;1.00
9699;DHT22;10089;47.876;8.346;2023-07-24T09:01:59;20.50;1.00
9699;DHT22;10089;47.876;8.346;2023-07-24T09:04:25;21.20;1.00
9699;DHT22;10089;47.876;8.346;2023-07-24T09:06:51;20.90;55.40
9699;DHT22;10089;47.876;8.346;2023-07-24T09:09:17;20.80;99.90
9699;DHT22;10089;47.876;8.346;2023-07-24T09:11:50;20.70;1.00
9699;DHT22;10089;47.876;8.346;2023-07-24T09:14:23;20.50;1.00
9699;DHT22;10089;47.876;8.346;2023-07-24T09:16:49;21.40;99.90
9699;DHT22;10089;47.876;8.346;2023-07-24T09:19:21;21.10;99.90
9699;DHT22;10089;47.876;8.346;2023-07-24T09:21:47;21.30;1.00
9699;DHT22;10089;47.876;8.346;2023-07-24T09:24:15;21.30;1.00
9699;DHT22;10089;47.876;8.346;2023-07-24T09:29:14;21.40;1.00
9699;DHT22;10089;47.876;8.346;2023-07-24T09:31:39;21.00;1.00
9699;DHT22;10089;47.876;8.346;2023-07-24T09:34:17;20.80;1.00
9699;DHT22;10089;47.876;8.346;2023-07-24T09:36:43;20.70;4.30
9699;DHT22;10089;47.876;8.346;2023-07-24T09:39:09;20.60;13.70
9699;DHT22;10089;47.876;8.346;2023-07-24T09:41:38;20.60;99.90
9699;DHT22;10089;47.876;8.346;2023-07-24T09:44:04;20.50;99.90
9699;DHT22;10089;47.876;8.346;2023-07-24T09:46:30;20.20;87.30
9699;DHT22;10089;47.876;8.346;2023-07-24T09:48:57;19.90;99.90
9699;DHT22;10089;47.876;8.346;2023-07-24T09:51:31;19.80;99.90
9699;DHT22;10089;47.876;8.346;2023-07-24T09:54:20;18.30;99.90
9699;DHT22;10089;47.876;8.346;2023-07-24T09:56:47;17.50;99.90
9699;DHT22;10089;47.876;8.346;2023-07-24T09:59:22;17.40;99.90
9699;DHT22;10089;47.876;8.346;2023-07-24T10:01:50;17.40;99.90
9699;DHT22;10089;47.876;8.346;2023-07-24T10:04:17;17.20;99.90
9699;DHT22;10089;47.876;8.346;2023-07-24T10:06:43;17.30;99.90
9699;DHT22;10089;47.876;8.346;2023-07-24T10:09:10;17.30;99.90
9699;DHT22;10089;47.876;8.346;2023-07-24T10:11:38;17.30;99.90
9699;DHT22;10089;47.876;8.346;2023-07-24T10:14:31;17.70;99.90
9699;DHT22;10089;47.876;8.346;2023-07-24T10:18:09;17.50;99.90
9699;DHT22;10089;47.876;8.346;2023-07-24T10:21:05;17.20;99.90
9699;DHT22;10089;47.876;8.346;2023-07-24T10:23:34;16.90;99.90
9699;DHT22;10089;47.876;8.346;2023-07-24T10:26:10;16.90;99.90
9699;DHT22;10089;47.876;8.346;2023-07-24T10:28:39;16.60;99.90
9699;DHT22;10089;47.876;8.346;2023-07-24T10:31:25;17.00;99.90
9699;DHT22;10089;47.876;8.346;2023-07-24T10:34:35;16.40;99.90
9699;DHT22;10089;47.876;8.346;2023-07-24T10:37:02;16.30;99.90
9699;DHT22;10089;47.876;8.346;2023-07-24T10:39:37;16.40;99.90
9699;DHT22;10089;47.876;8.346;2023-07-24T10:42:08;16.30;99.90
9699;DHT22;10089;47.876;8.346;2023-07-24T10:44:34;16.40;99.90
9699;DHT22;10089;47.876;8.346;2023-07-24T10:47:00;16.70;99.90
9699;DHT22;10089;47.876;8.346;2023-07-24T10:49:26;16.50;99.90
9699;DHT22;10089;47.876;8.346;2023-07-24T10:51:56;16.60;99.90
9699;DHT22;10089;47.876;8.346;2023-07-24T10:54:22;16.50;99.90
9699;DHT22;10089;47.876;8.346;2023-07-24T10:56:48;16.60;99.90
9699;DHT22;10089;47.876;8.346;2023-07-24T10:59:13;16.80;99.90
9699;DHT22;10089;47.876;8.346;2023-07-24T11:01:40;16.90;99.90
9699;DHT22;10089;47.876;8.346;2023-07-24T11:04:06;17.20;99.90
9699;DHT22;10089;47.876;8.346;2023-07-24T11:06:32;17.30;99.90
9699;DHT22;10089;47.876;8.346;2023-07-24T11:08:59;17.40;99.90
9699;DHT22;10089;47.876;8.346;2023-07-24T11:11:35;17.50;99.90
9699;DHT22;10089;47.876;8.346;2023-07-24T11:14:02;17.50;99.90
9699;DHT22;10089;47.876;8.346;2023-07-24T11:16:27;17.50;99.90
9699;DHT22;10089;47.876;8.346;2023-07-24T11:18:55;17.60;99.90
9699;DHT22;10089;47.876;8.346;2023-07-24T11:21:22;17.70;99.90
9699;DHT22;10089;47.876;8.346;2023-07-24T11:23:50;17.70;99.90
9699;DHT22;10089;47.876;8.346;2023-07-24T11:26:19;17.80;99.90
9699;DHT22;10089;47.876;8.346;2023-07-24T11:28:46;17.90;99.90
9699;DHT22;10089;47.876;8.346;2023-07-24T11:31:12;17.50;99.90
9699;DHT22;10089;47.876;8.346;2023-07-24T11:33:38;17.60;99.90
9699;DHT22;10089;47.876;8.346;2023-07-24T11:36:04;17.60;99.90
9699;DHT22;10089;47.876;8.346;2023-07-24T11:38:30;17.60;99.90
9699;DHT22;10089;47.876;8.346;2023-07-24T11:40:56;17.70;99.90
9699;DHT22;10089;47.876;8.346;2023-07-24T11:43:23;17.90;99.90
9699;DHT22;10089;47.876;8.346;2023-07-24T11:45:50;17.50;99.90
9699;DHT22;10089;47.876;8.346;2023-07-24T11:48:24;17.40;99.90
9699;DHT22;10089;47.876;8.346;2023-07-24T11:50:56;17.20;99.90
9699;DHT22;10089;47.876;8.346;2023-07-24T11:53:30;16.80;99.90
9699;DHT22;10089;47.876;8.346;2023-07-24T11:55:59;16.90;99.90
9699;DHT22;10089;47.876;8.346;2023-07-24T11:58:28;16.80;99.90
9699;DHT22;10089;47.876;8.346;2023-07-24T12:00:54;16.70;99.90
9699;DHT22;10089;47.876;8.346;2023-07-24T12:03:28;17.10;99.90
9699;DHT22;10089;47.876;8.346;2023-07-24T12:05:54;17.30;99.90
9699;DHT22;10089;47.876;8.346;2023-07-24T12:08:39;17.20;99.90
9699;DHT22;10089;47.876;8.346;2023-07-24T12:11:16;17.40;99.90
9699;DHT22;10089;47.876;8.346;2023-07-24T12:13:42;17.70;99.90
9699;DHT22;10089;47.876;8.346;2023-07-24T12:16:08;17.50;99.90
9699;DHT22;10089;47.876;8.346;2023-07-24T12:18:33;17.80;99.90
9699;DHT22;10089;47.876;8.346;2023-07-24T12:20:59;17.90;99.90
9699;DHT22;10089;47.876;8.346;2023-07-24T12:23:24;17.70;99.90
9699;DHT22;10089;47.876;8.346;2023-07-24T12:25:50;17.70;99.90
9699;DHT22;10089;47.876;8.346;2023-07-24T12:28:15;17.90;99.90
9699;DHT22;10089;47.876;8.346;2023-07-24T12:30:41;17.80;99.90
9699;DHT22;10089;47.876;8.346;2023-07-24T12:33:07;17.80;99.90
9699;DHT22;10089;47.876;8.346;2023-07-24T12:35:33;18.20;99.90
9699;DHT22;10089;47.876;8.346;2023-07-24T12:37:58;18.20;99.90
9699;DHT22;10089;47.876;8.346;2023-07-24T12:40:24;18.30;99.90
9699;DHT22;10089;47.876;8.346;2023-07-24T12:42:50;18.50;99.90
9699;DHT22;10089;47.876;8.346;2023-07-24T12:45:15;18.60;99.90
9699;DHT22;10089;47.876;8.346;2023-07-24T12:47:41;18.60;99.90
9699;DHT22;10089;47.876;8.346;2023-07-24T12:50:07;18.40;99.90
9699;DHT22;10089;47.876;8.346;2023-07-24T12:52:32;18.40;99.90
9699;DHT22;10089;47.876;8.346;2023-07-24T12:54:58;18.30;99.90
9699;DHT22;10089;47.876;8.346;2023-07-24T12:57:23;18.20;99.90
9699;DHT22;10089;47.876;8.346;2023-07-24T12:59:49;18.00;99.90
9699;DHT22;10089;47.876;8.346;2023-07-24T13:02:14;17.90;99.90
9699;DHT22;10089;47.876;8.346;2023-07-24T13:04:40;17.90;99.90
9699;DHT22;10089;47.876;8.346;2023-07-24T13:07:06;18.60;99.90
9699;DHT22;10089;47.876;8.346;2023-07-24T13:09:31;18.50;99.90
9699;DHT22;10089;47.876;8.346;2023-07-24T13:11:57;19.00;99.90
9699;DHT22;10089;47.876;8.346;2023-07-24T13:14:22;19.50;99.90
9699;DHT22;10089;47.876;8.346;2023-07-24T13:16:49;17.30;99.90
9699;DHT22;10089;47.876;8.346;2023-07-24T13:19:15;20.20;99.90
9699;DHT22;10089;47.876;8.346;2023-07-24T13:21:41;19.50;99.90
9699;DHT22;10089;47.876;8.346;2023-07-24T13:24:08;19.60;99.90
9699;DHT22;10089;47.876;8.346;2023-07-24T13:26:34;18.10;99.90
9699;DHT22;10089;47.876;8.346;2023-07-24T13:28:59;19.40;99.90
9699;DHT22;10089;47.876;8.346;2023-07-24T13:31:25;19.10;99.90
9699;DHT22;10089;47.876;8.346;2023-07-24T13:33:51;19.40;99.90
9699;DHT22;10089;47.876;8.346;2023-07-24T13:36:16;17.60;99.90
9699;DHT22;10089;47.876;8.346;2023-07-24T13:38:42;18.80;99.90
9699;DHT22;10089;47.876;8.346;2023-07-24T13:41:08;18.50;99.90
9699;DHT22;10089;47.876;8.346;2023-07-24T13:43:34;17.00;99.90
9699;DHT22;10089;47.876;8.346;2023-07-24T13:46:00;19.40;99.90
9699;DHT22;10089;47.876;8.346;2023-07-24T13:48:27;18.40;99.90
9699;DHT22;10089;47.876;8.346;2023-07-24T13:50:53;17.80;99.90
9699;DHT22;10089;47.876;8.346;2023-07-24T13:53:18;18.60;99.90
9699;DHT22;10089;47.876;8.346;2023-07-24T13:55:44;19.10;99.90
9699;DHT22;10089;47.876;8.346;2023-07-24T13:58:09;17.70;99.90
9699;DHT22;10089;47.876;8.346;2023-07-24T14:00:35;19.40;99.90
9699;DHT22;10089;47.876;8.346;2023-07-24T14:03:01;19.30;99.90
9699;DHT22;10089;47.876;8.346;2023-07-24T14:05:26;17.60;99.90
9699;DHT22;10089;47.876;8.346;2023-07-24T14:07:52;17.50;99.90
9699;DHT22;10089;47.876;8.346;2023-07-24T14:10:18;19.20;99.90
9699;DHT22;10089;47.876;8.346;2023-07-24T14:12:43;18.90;99.90
9699;DHT22;10089;47.876;8.346;2023-07-24T14:15:09;18.30;99.90
9699;DHT22;10089;47.876;8.346;2023-07-24T14:17:35;17.50;99.90
9699;DHT22;10089;47.876;8.346;2023-07-24T14:20:02;19.20;99.90
9699;DHT22;10089;47.876;8.346;2023-07-24T14:22:27;18.50;99.90
9699;DHT22;10089;47.876;8.346;2023-07-24T14:24:53;18.70;99.90
9699;DHT22;10089;47.876;8.346;2023-07-24T14:27:19;17.50;99.90
9699;DHT22;10089;47.876;8.346;2023-07-24T14:29:44;18.80;99.90
9699;DHT22;10089;47.876;8.346;2023-07-24T14:32:10;18.70;99.90
9699;DHT22;10089;47.876;8.346;2023-07-24T14:34:35;17.40;99.90
9699;DHT22;10089;47.876;8.346;2023-07-24T14:37:01;18.30;99.90
9699;DHT22;10089;47.876;8.346;2023-07-24T14:39:26;18.90;99.90
9699;DHT22;10089;47.876;8.346;2023-07-24T14:41:52;17.20;99.90
9699;DHT22;10089;47.876;8.346;2023-07-24T14:44:18;17.20;99.90
9699;DHT22;10089;47.876;8.346;2023-07-24T14:46:43;17.90;99.90
9699;DHT22;10089;47.876;8.346;2023-07-24T14:49:09;18.30;99.90
9699;DHT22;10089;47.876;8.346;2023-07-24T14:51:34;19.20;99.90
9699;DHT22;10089;47.876;8.346;2023-07-24T14:54:00;18.00;99.90
9699;DHT22;10089;47.876;8.346;2023-07-24T14:56:26;17.80;99.90
9699;DHT22;10089;47.876;8.346;2023-07-24T14:58:51;18.30;99.90
9699;DHT22;10089;47.876;8.346;2023-07-24T15:01:17;18.00;99.90
9699;DHT22;10089;47.876;8.346;2023-07-24T15:03:43;18.20;99.90
9699;DHT22;10089;47.876;8.346;2023-07-24T15:06:09;19.60;99.90
9699;DHT22;10089;47.876;8.346;2023-07-24T15:08:35;19.40;99.90
9699;DHT22;10089;47.876;8.346;2023-07-24T15:11:00;20.40;99.90
9699;DHT22;10089;47.876;8.346;2023-07-24T15:13:26;20.60;99.90
9699;DHT22;10089;47.876;8.346;2023-07-24T15:15:52;18.20;99.90
9699;DHT22;10089;47.876;8.346;2023-07-24T15:18:17;18.40;99.90
9699;DHT22;10089;47.876;8.346;2023-07-24T15:20:43;19.30;99.90
9699;DHT22;10089;47.876;8.346;2023-07-24T15:23:09;19.40;99.90
9699;DHT22;10089;47.876;8.346;2023-07-24T15:25:35;18.90;99.90
9699;DHT22;10089;47.876;8.346;2023-07-24T15:28:02;18.60;99.90
9699;DHT22;10089;47.876;8.346;2023-07-24T15:30:27;18.20;99.90
9699;DHT22;10089;47.876;8.346;2023-07-24T15:32:53;18.80;99.90
9699;DHT22;10089;47.876;8.346;2023-07-24T15:35:19;19.00;99.90
9699;DHT22;10089;47.876;8.346;2023-07-24T15:37:44;18.40;99.90
9699;DHT22;10089;47.876;8.346;2023-07-24T15:40:10;19.40;99.90
9699;DHT22;10089;47.876;8.346;2023-07-24T15:42:36;18.70;99.90
9699;DHT22;10089;47.876;8.346;2023-07-24T15:45:02;20.00;99.90
9699;DHT22;10089;47.876;8.346;2023-07-24T15:47:29;18.90;99.90
9699;DHT22;10089;47.876;8.346;2023-07-24T15:49:54;19.80;99.90
9699;DHT22;10089;47.876;8.346;2023-07-24T15:52:20;19.50;99.90
9699;DHT22;10089;47.876;8.346;2023-07-24T15:54:46;19.80;99.90
9699;DHT22;10089;47.876;8.346;2023-07-24T15:57:11;19.30;99.90
9699;DHT22;10089;47.876;8.346;2023-07-24T15:59:37;19.90;99.90
9699;DHT22;10089;47.876;8.346;2023-07-24T16:02:03;19.10;99.90
9699;DHT22;10089;47.876;8.346;2023-07-24T16:04:29;19.00;99.90
9699;DHT22;10089;47.876;8.346;2023-07-24T16:06:55;20.60;99.90
9699;DHT22;10089;47.876;8.346;2023-07-24T16:09:20;19.30;99.90
9699;DHT22;10089;47.876;8.346;2023-07-24T16:11:47;19.70;99.90
9699;DHT22;10089;47.876;8.346;2023-07-24T16:14:13;20.40;99.90
9699;DHT22;10089;47.876;8.346;2023-07-24T16:16:39;19.10;99.90
9699;DHT22;10089;47.876;8.346;2023-07-24T16:19:14;20.20;99.90
9699;DHT22;10089;47.876;8.346;2023-07-24T16:21:41;19.00;99.90
9699;DHT22;10089;47.876;8.346;2023-07-24T16:24:08;20.10;99.90
9699;DHT22;10089;47.876;8.346;2023-07-24T16:26:36;20.00;99.90
9699;DHT22;10089;47.876;8.346;2023-07-24T16:29:03;20.20;99.90
9699;DHT22;10089;47.876;8.346;2023-07-24T16:31:28;20.80;98.30
9699;DHT22;10089;47.876;8.346;2023-07-24T16:33:54;19.80;99.90
9699;DHT22;10089;47.876;8.346;2023-07-24T16:36:20;18.80;99.90
9699;DHT22;10089;47.876;8.346;2023-07-24T16:38:45;19.40;99.90